Terminal Aerodrome Forecast
Issued by NWS New Orleans/Baton Rouge, LA

Home | Current Version | Previous Version | Text Only | Print | Product List | Glossary On
Versions: 1 2 3 4 5 6 7 8 9 10 11 12 13 14 15 16 17 18 19 20 21 22 23 24 25 26
000
FTUS44 KLIX 011700 RRA
TAFNEW
TAF
KNEW 011741Z 0118/0218 18009KT P6SM VCSH FEW014 BKN035
     FM020300 14007KT P6SM BKN035
     FM021500 15008KT P6SM BKN035=

USA.gov is the U.S. government's official web portal to all federal, state and local government web resources and services.